createdAt,value
2019-06-01T00:00:27.412Z,13.30
2019-06-01T00:01:31.106Z,13.07
2019-06-01T00:02:35.770Z,13.97
2019-06-01T00:03:40.236Z,12.80
2019-06-01T00:04:45.265Z,12.17
2019-06-01T00:05:49.067Z,13.70
2019-06-01T00:06:53.351Z,13.30
2019-06-01T00:07:56.912Z,13.57
2019-06-01T00:09:01.149Z,13.23
2019-06-01T00:10:06.407Z,13.93
2019-06-01T00:11:10.618Z,12.70
2019-06-01T00:12:14.286Z,13.07
2019-06-01T00:13:18.456Z,12.97
2019-06-01T00:14:22.110Z,12.97
2019-06-01T00:15:26.392Z,12.97
2019-06-01T00:16:29.962Z,12.60
2019-06-01T00:17:34.174Z,11.07
2019-06-01T00:18:37.806Z,12.77
2019-06-01T00:19:42.130Z,12.23
2019-06-01T00:20:45.778Z,12.30
2019-06-01T00:21:50.005Z,12.37
2019-06-01T00:22:53.647Z,12.67
2019-06-01T00:23:57.892Z,11.70
2019-06-01T00:25:01.550Z,12.47
2019-06-01T00:26:05.873Z,11.97
2019-06-01T00:27:09.919Z,12.20
2019-06-01T00:28:14.187Z,11.70
2019-06-01T00:29:17.820Z,11.67
2019-06-01T00:30:27.109Z,10.90
2019-06-01T00:31:27.358Z,11.50
2019-06-01T00:32:31.612Z,11.20
2019-06-01T00:33:35.257Z,11.43
2019-06-01T00:34:41.318Z,12.00
2019-06-01T00:35:45.455Z,11.43
2019-06-01T00:36:49.788Z,11.83
2019-06-01T00:37:53.359Z,11.07
2019-06-01T00:38:57.613Z,12.07
2019-06-01T00:40:01.243Z,11.27
2019-06-01T00:41:05.491Z,12.13
2019-06-01T00:42:09.147Z,11.30
2019-06-01T00:43:13.798Z,12.07
2019-06-01T00:44:17.466Z,12.13
2019-06-01T00:45:22.125Z,11.77
2019-06-01T00:46:25.779Z,12.07
2019-06-01T00:47:29.932Z,12.10
2019-06-01T00:48:33.582Z,11.47
2019-06-01T00:49:37.842Z,11.57
2019-06-01T00:50:42.944Z,11.80
2019-06-01T00:51:47.385Z,11.87
2019-06-01T00:52:51.412Z,12.83
2019-06-01T00:53:55.640Z,12.43
2019-06-01T00:54:59.242Z,12.20
2019-06-01T00:56:03.419Z,11.67
2019-06-01T00:57:07.058Z,11.77
2019-06-01T00:58:11.901Z,11.23
2019-06-01T00:59:15.622Z,12.47
2019-06-01T01:00:20.267Z,12.07
2019-06-01T01:01:23.916Z,12.07
2019-06-01T01:02:28.600Z,12.37
2019-06-01T01:03:32.276Z,13.13
2019-06-01T01:04:36.445Z,12.60
2019-06-01T01:05:40.077Z,12.13
2019-06-01T01:06:44.484Z,12.13
2019-06-01T01:07:48.851Z,12.33
2019-06-01T01:08:53.208Z,12.80
2019-06-01T01:09:56.794Z,12.60
2019-06-01T01:11:01.039Z,11.43
2019-06-01T01:12:04.678Z,11.63
2019-06-01T01:13:12.817Z,12.00
2019-06-01T01:14:16.570Z,11.53
2019-06-01T01:15:20.821Z,11.87
2019-06-01T01:16:24.470Z,12.20
2019-06-01T01:17:28.730Z,11.50
2019-06-01T01:18:32.406Z,12.30
2019-06-01T01:19:36.620Z,12.67
2019-06-01T01:20:40.252Z,12.20
2019-06-01T01:21:44.415Z,12.07
2019-06-01T01:22:48.599Z,12.53
2019-06-01T01:23:53.249Z,13.30
2019-06-01T01:24:57.961Z,12.20
2019-06-01T01:26:02.205Z,12.90
2019-06-01T01:27:05.857Z,13.33
2019-06-01T01:28:10.077Z,12.77
2019-06-01T01:29:13.768Z,13.50
2019-06-01T01:30:18.488Z,12.87
2019-06-01T01:31:22.126Z,12.77
2019-06-01T01:32:26.363Z,12.90
2019-06-01T01:33:29.991Z,12.87
2019-06-01T01:34:34.262Z,13.43
2019-06-01T01:35:38.231Z,13.20
2019-06-01T01:36:42.389Z,13.80
2019-06-01T01:37:47.728Z,12.67
2019-06-01T01:38:52.334Z,12.47
2019-06-01T01:39:56.327Z,13.10
2019-06-01T01:41:00.627Z,12.70
2019-06-01T01:42:04.282Z,12.00
2019-06-01T01:43:08.452Z,12.97
2019-06-01T01:44:12.014Z,11.80
2019-06-01T01:45:16.287Z,12.40
2019-06-01T01:46:19.936Z,10.83
2019-06-01T01:47:24.169Z,11.57
2019-06-01T01:48:27.733Z,10.77
2019-06-01T01:49:31.876Z,11.00
2019-06-01T01:50:35.568Z,10.47
2019-06-01T01:51:39.736Z,11.13
2019-06-01T01:52:43.304Z,9.67
2019-06-01T01:53:47.469Z,11.00
2019-06-01T01:54:51.101Z,11.93
2019-06-01T01:55:55.284Z,10.80
2019-06-01T01:56:58.938Z,11.13
2019-06-01T01:58:03.180Z,11.73
2019-06-01T01:59:06.810Z,11.13
2019-06-01T02:00:12.756Z,12.07
2019-06-01T02:01:22.650Z,11.17
2019-06-01T02:02:22.391Z,10.90
2019-06-01T02:03:26.048Z,11.10
2019-06-01T02:04:30.278Z,11.90
2019-06-01T02:05:33.938Z,11.00
2019-06-01T02:06:38.111Z,11.13
2019-06-01T02:07:41.762Z,11.47
2019-06-01T02:08:46.011Z,11.27
2019-06-01T02:09:49.641Z,11.07
2019-06-01T02:10:53.827Z,11.13
2019-06-01T02:11:57.742Z,10.80
2019-06-01T02:13:02.425Z,11.17
2019-06-01T02:14:06.051Z,10.83
2019-06-01T02:15:10.391Z,10.97
2019-06-01T02:16:14.056Z,11.70
2019-06-01T02:17:18.309Z,10.73
2019-06-01T02:18:21.972Z,11.87
2019-06-01T02:19:26.221Z,11.10
2019-06-01T02:20:29.857Z,11.13
2019-06-01T02:21:34.106Z,11.30
2019-06-01T02:22:37.729Z,11.40
2019-06-01T02:23:41.952Z,11.57
2019-06-01T02:24:45.584Z,12.77
2019-06-01T02:25:49.822Z,14.67
2019-06-01T02:26:53.378Z,12.03
2019-06-01T02:27:57.655Z,12.67
2019-06-01T02:29:02.454Z,11.53
2019-06-01T02:30:10.421Z,11.83
2019-06-01T02:31:14.008Z,12.67
2019-06-01T02:32:18.185Z,11.93
2019-06-01T02:33:21.842Z,11.90
2019-06-01T02:34:26.054Z,12.17
2019-06-01T02:35:29.702Z,12.10
2019-06-01T02:36:33.934Z,12.63
2019-06-01T02:37:37.586Z,12.13
2019-06-01T02:38:41.896Z,12.90
2019-06-01T02:39:45.548Z,12.60
2019-06-01T02:40:49.790Z,12.67
2019-06-01T02:41:54.930Z,13.00
2019-06-01T02:43:01.223Z,11.93
2019-06-01T02:44:06.296Z,12.57
2019-06-01T02:45:13.011Z,12.07
2019-06-01T02:46:16.676Z,11.47
2019-06-01T02:47:20.888Z,12.47
2019-06-01T02:48:24.571Z,11.17
2019-06-01T02:49:28.840Z,12.10
2019-06-01T02:50:32.473Z,13.10
2019-06-01T02:51:36.773Z,12.77
2019-06-01T02:52:40.437Z,12.83
2019-06-01T02:53:44.694Z,12.63
2019-06-01T02:54:48.430Z,12.60
2019-06-01T02:55:52.997Z,13.07
2019-06-01T02:56:57.806Z,12.13
2019-06-01T02:58:02.518Z,11.30
2019-06-01T02:59:06.763Z,11.37
2019-06-01T03:00:11.643Z,11.10
2019-06-01T03:01:30.231Z,11.27
2019-06-01T03:02:34.984Z,9.47
2019-06-01T03:03:38.944Z,10.10
2019-06-01T03:04:44.057Z,10.50
2019-06-01T03:05:48.385Z,9.00
2019-06-01T03:06:55.116Z,9.00
2019-06-01T03:07:59.370Z,9.00
2019-06-01T03:09:06.756Z,10.43
2019-06-01T03:10:11.116Z,10.10
2019-06-01T03:11:16.350Z,9.93
2019-06-01T03:12:21.941Z,10.43
2019-06-01T03:13:29.585Z,10.60
2019-06-01T03:14:34.800Z,9.70
2019-06-01T03:15:41.920Z,10.60
2019-06-01T03:16:47.383Z,9.37
2019-06-01T03:17:54.240Z,9.97
2019-06-01T03:19:03.688Z,9.80
2019-06-01T03:20:08.447Z,10.30
2019-06-01T03:21:15.039Z,10.13
2019-06-01T03:22:22.570Z,10.57
2019-06-01T03:23:27.882Z,9.03
2019-06-01T03:24:35.002Z,8.83
2019-06-01T03:25:40.017Z,9.63
2019-06-01T03:26:46.661Z,9.57
2019-06-01T03:27:52.134Z,10.37
2019-06-01T03:28:58.204Z,8.87
2019-06-01T03:30:06.621Z,8.53
2019-06-01T03:31:13.162Z,8.47
2019-06-01T03:32:34.124Z,8.33
2019-06-01T03:33:22.910Z,8.90
2019-06-01T03:34:26.562Z,8.70
2019-06-01T03:35:30.827Z,8.10
2019-06-01T03:36:34.557Z,7.83
2019-06-01T03:37:38.889Z,7.70
2019-06-01T03:38:42.784Z,7.27
2019-06-01T03:39:46.796Z,7.53
2019-06-01T03:40:50.438Z,7.33
2019-06-01T03:41:54.672Z,7.00
2019-06-01T03:42:58.366Z,6.33
2019-06-01T03:44:02.653Z,7.23
2019-06-01T03:45:07.537Z,5.90
2019-06-01T03:46:13.017Z,6.70
2019-06-01T03:47:16.855Z,6.13
2019-06-01T03:48:21.153Z,6.30
2019-06-01T03:49:24.705Z,5.43
2019-06-01T03:50:28.880Z,6.13
2019-06-01T03:51:32.604Z,5.40
2019-06-01T03:52:36.839Z,6.07
2019-06-01T03:53:40.564Z,5.03
2019-06-01T03:54:44.737Z,6.73
2019-06-01T03:55:48.292Z,5.20
2019-06-01T03:56:52.477Z,5.40
2019-06-01T03:57:56.174Z,5.70
2019-06-01T03:59:01.002Z,5.70
2019-06-01T04:00:07.462Z,4.90
2019-06-01T04:01:11.667Z,4.57
2019-06-01T04:02:15.338Z,5.50
2019-06-01T04:03:19.939Z,5.17
2019-06-01T04:04:23.579Z,4.57
2019-06-01T04:05:27.865Z,5.50
2019-06-01T04:06:31.514Z,5.33
2019-06-01T04:07:38.804Z,4.97
2019-06-01T04:08:41.276Z,5.37
2019-06-01T04:09:45.547Z,5.57
2019-06-01T04:10:49.210Z,5.60
2019-06-01T04:11:53.427Z,5.43
2019-06-01T04:12:57.119Z,5.47
2019-06-01T04:14:01.601Z,5.20
2019-06-01T04:15:11.560Z,5.33
2019-06-01T04:16:14.607Z,5.00
2019-06-01T04:17:18.243Z,4.83
2019-06-01T04:18:22.508Z,5.13
2019-06-01T04:19:26.130Z,5.13
2019-06-01T04:20:30.414Z,5.97
2019-06-01T04:21:34.070Z,5.63
2019-06-01T04:22:38.293Z,4.77
2019-06-01T04:23:42.390Z,4.87
2019-06-01T04:24:46.606Z,4.57
2019-06-01T04:25:50.242Z,4.70
2019-06-01T04:26:54.405Z,4.23
2019-06-01T04:27:58.089Z,4.90
2019-06-01T04:29:02.401Z,4.27
2019-06-01T04:30:07.647Z,3.90
2019-06-01T04:31:12.853Z,5.03
2019-06-01T04:32:16.855Z,5.20
2019-06-01T04:33:21.005Z,5.30
2019-06-01T04:34:24.698Z,4.20
2019-06-01T04:35:28.992Z,4.30
2019-06-01T04:36:32.628Z,3.77
2019-06-01T04:37:36.854Z,4.13
2019-06-01T04:38:40.503Z,3.63
2019-06-01T04:39:44.759Z,4.53
2019-06-01T04:40:48.477Z,4.33
2019-06-01T04:41:52.682Z,4.27
2019-06-01T04:42:56.268Z,3.87
2019-06-01T04:44:00.518Z,3.77
2019-06-01T04:45:06.746Z,3.70
2019-06-01T04:46:12.344Z,4.20
2019-06-01T04:47:16.115Z,4.67
2019-06-01T04:48:20.398Z,4.10
2019-06-01T04:49:24.025Z,4.03
2019-06-01T04:50:28.261Z,3.93
2019-06-01T04:51:31.905Z,4.10
2019-06-01T04:52:36.145Z,4.00
2019-06-01T04:53:39.862Z,4.40
2019-06-01T04:54:44.125Z,4.87
2019-06-01T04:55:48.048Z,4.63
2019-06-01T04:56:52.266Z,4.57
2019-06-01T04:57:55.918Z,4.57
2019-06-01T04:59:00.231Z,6.47
2019-06-01T05:00:15.541Z,4.17
2019-06-01T05:01:11.669Z,5.00
2019-06-01T05:02:15.331Z,5.23
2019-06-01T05:03:19.479Z,5.03
2019-06-01T05:04:23.133Z,5.70
2019-06-01T05:05:27.723Z,5.10
2019-06-01T05:06:31.300Z,7.60
2019-06-01T05:07:35.632Z,8.67
2019-06-01T05:08:39.287Z,7.27
2019-06-01T05:09:43.466Z,5.73
2019-06-01T05:10:47.141Z,6.20
2019-06-01T05:11:51.275Z,5.60
2019-06-01T05:12:54.899Z,6.40
2019-06-01T05:13:59.170Z,5.80
2019-06-01T05:15:02.817Z,5.20
2019-06-01T05:16:07.897Z,5.40
2019-06-01T05:17:13.367Z,5.17
2019-06-01T05:18:19.623Z,6.00
2019-06-01T05:19:22.883Z,6.13
2019-06-01T05:20:27.143Z,5.00
2019-06-01T05:21:31.074Z,4.90
2019-06-01T05:22:35.401Z,5.33
2019-06-01T05:23:39.092Z,5.27
2019-06-01T05:24:43.362Z,5.43
2019-06-01T05:25:47.064Z,6.70
2019-06-01T05:26:51.313Z,8.50
2019-06-01T05:27:54.995Z,6.37
2019-06-01T05:28:59.243Z,6.03
2019-06-01T05:30:02.898Z,6.37
2019-06-01T05:31:09.615Z,5.37
2019-06-01T05:32:12.684Z,5.93
2019-06-01T05:33:31.080Z,6.13
2019-06-01T05:34:22.280Z,6.77
2019-06-01T05:35:26.495Z,7.03
2019-06-01T05:36:30.216Z,6.93
2019-06-01T05:37:34.471Z,7.50
2019-06-01T05:38:38.106Z,7.20
2019-06-01T05:39:45.170Z,6.67
2019-06-01T05:40:49.184Z,6.80
2019-06-01T05:41:53.392Z,7.17
2019-06-01T05:42:57.035Z,6.73
2019-06-01T05:44:08.900Z,7.57
2019-06-01T05:45:11.296Z,7.20
2019-06-01T05:46:16.062Z,7.87
2019-06-01T05:47:19.874Z,8.97
2019-06-01T05:48:28.455Z,7.53
2019-06-01T05:49:29.477Z,8.50
2019-06-01T05:50:33.723Z,8.70
2019-06-01T05:51:37.389Z,8.67
2019-06-01T05:52:42.006Z,8.47
2019-06-01T05:53:47.128Z,7.90
2019-06-01T05:54:51.323Z,8.10
2019-06-01T05:55:54.958Z,9.23
2019-06-01T05:56:59.120Z,8.77
2019-06-01T05:58:02.767Z,8.57
2019-06-01T05:59:06.984Z,9.17
2019-06-01T06:00:13.093Z,9.00
2019-06-01T06:01:19.630Z,8.47
2019-06-01T06:02:22.796Z,8.67
2019-06-01T06:03:39.988Z,8.83
2019-06-01T06:04:32.375Z,9.07
2019-06-01T06:05:36.680Z,9.10
2019-06-01T06:06:40.344Z,9.20
2019-06-01T06:07:44.578Z,9.60
2019-06-01T06:08:48.218Z,9.13
2019-06-01T06:09:52.403Z,8.67
2019-06-01T06:10:56.027Z,9.57
2019-06-01T06:12:00.277Z,9.17
2019-06-01T06:13:04.339Z,8.73
2019-06-01T06:14:08.607Z,9.40
2019-06-01T06:15:13.543Z,10.30
2019-06-01T06:16:18.244Z,10.27
2019-06-01T06:17:24.288Z,9.97
2019-06-01T06:18:33.981Z,11.17
2019-06-01T06:19:33.300Z,9.73
2019-06-01T06:20:37.473Z,10.57
2019-06-01T06:21:41.181Z,11.37
2019-06-01T06:22:45.434Z,12.47
2019-06-01T06:23:49.445Z,11.10
2019-06-01T06:24:53.680Z,11.63
2019-06-01T06:25:57.307Z,12.03
2019-06-01T06:27:04.129Z,11.27
2019-06-01T06:28:07.695Z,9.53
2019-06-01T06:29:12.738Z,10.27
2019-06-01T06:30:16.991Z,12.17
2019-06-01T06:31:21.298Z,10.43
2019-06-01T06:32:25.279Z,10.67
2019-06-01T06:33:29.439Z,10.57
2019-06-01T06:34:33.106Z,9.63
2019-06-01T06:35:41.399Z,9.57
2019-06-01T06:36:45.060Z,9.40
2019-06-01T06:37:50.152Z,10.17
2019-06-01T06:38:54.262Z,9.33
2019-06-01T06:39:58.458Z,9.67
2019-06-01T06:41:02.011Z,10.83
2019-06-01T06:42:06.942Z,10.43
2019-06-01T06:43:19.133Z,10.37
2019-06-01T06:44:25.225Z,10.70
2019-06-01T06:45:28.876Z,10.67
2019-06-01T06:46:33.109Z,9.33
2019-06-01T06:47:36.674Z,10.30
2019-06-01T06:48:40.918Z,10.70
2019-06-01T06:49:44.567Z,10.50
2019-06-01T06:50:48.791Z,10.30
2019-06-01T06:51:52.431Z,10.50
2019-06-01T06:52:56.690Z,10.43
2019-06-01T06:54:00.337Z,10.13
2019-06-01T06:55:05.425Z,10.80
2019-06-01T06:56:08.968Z,10.50
2019-06-01T06:57:13.253Z,10.07
2019-06-01T06:58:18.650Z,10.40
2019-06-01T06:59:22.695Z,10.40
2019-06-01T07:00:27.036Z,10.53
2019-06-01T07:01:31.381Z,10.23
2019-06-01T07:02:35.022Z,10.43
2019-06-01T07:03:39.260Z,10.27
2019-06-01T07:04:42.895Z,12.30
2019-06-01T07:05:47.176Z,43.73
2019-06-01T07:06:50.766Z,12.57
2019-06-01T07:07:55.075Z,19.53
2019-06-01T07:08:58.735Z,11.77
2019-06-01T07:10:03.080Z,10.70
2019-06-01T07:11:06.724Z,10.30
2019-06-01T07:12:10.971Z,11.53
2019-06-01T07:13:14.613Z,10.57
2019-06-01T07:14:19.297Z,10.07
2019-06-01T07:15:23.502Z,10.10
2019-06-01T07:16:27.901Z,10.07
2019-06-01T07:17:31.919Z,10.17
2019-06-01T07:18:36.277Z,9.93
2019-06-01T07:19:43.080Z,9.77
2019-06-01T07:20:47.661Z,9.63
2019-06-01T07:21:51.318Z,9.83
2019-06-01T07:22:55.564Z,10.50
2019-06-01T07:23:59.226Z,10.33
2019-06-01T07:25:03.486Z,9.50
2019-06-01T07:26:07.131Z,9.67
2019-06-01T07:27:11.367Z,10.77
2019-06-01T07:28:16.670Z,10.43
2019-06-01T07:29:22.014Z,11.03
2019-06-01T07:30:26.347Z,10.90
2019-06-01T07:31:30.965Z,11.00
2019-06-01T07:32:36.912Z,11.17
2019-06-01T07:33:43.359Z,11.60
2019-06-01T07:34:47.026Z,10.43
2019-06-01T07:35:51.250Z,11.87
2019-06-01T07:36:54.969Z,10.83
2019-06-01T07:37:59.255Z,10.37
2019-06-01T07:39:02.883Z,9.77
2019-06-01T07:40:12.224Z,10.17
2019-06-01T07:41:13.509Z,9.97
2019-06-01T07:42:17.683Z,10.53
2019-06-01T07:43:22.545Z,10.13
2019-06-01T07:44:27.004Z,9.70
2019-06-01T07:45:33.521Z,10.27
2019-06-01T07:46:36.556Z,10.67
2019-06-01T07:47:40.176Z,10.00
2019-06-01T07:48:44.833Z,10.47
2019-06-01T07:49:48.495Z,11.43
2019-06-01T07:50:52.714Z,10.40
2019-06-01T07:51:56.567Z,10.00
2019-06-01T07:53:00.926Z,9.60
2019-06-01T07:54:04.696Z,10.33
2019-06-01T07:55:09.097Z,10.23
2019-06-01T07:56:12.656Z,10.03
2019-06-01T07:57:16.844Z,10.13
2019-06-01T07:58:20.913Z,11.10
2019-06-01T07:59:26.373Z,9.50
2019-06-01T08:00:30.513Z,10.67
2019-06-01T08:01:35.109Z,10.90
2019-06-01T08:02:38.747Z,9.73
2019-06-01T08:03:43.027Z,10.30
2019-06-01T08:04:53.166Z,10.70
2019-06-01T08:05:52.967Z,10.90
2019-06-01T08:06:56.833Z,10.17
2019-06-01T08:08:01.249Z,10.47
2019-06-01T08:09:06.890Z,10.77
2019-06-01T08:10:11.318Z,10.07
2019-06-01T08:11:14.970Z,10.20
2019-06-01T08:12:19.192Z,10.90
2019-06-01T08:13:23.401Z,10.00
2019-06-01T08:14:28.638Z,10.93
2019-06-01T08:15:32.493Z,10.37
2019-06-01T08:16:36.667Z,9.77
2019-06-01T08:17:40.324Z,10.00
2019-06-01T08:18:44.643Z,10.30
2019-06-01T08:19:51.750Z,10.80
2019-06-01T08:20:54.318Z,10.50
2019-06-01T08:21:58.175Z,10.13
2019-06-01T08:23:02.400Z,10.60
2019-06-01T08:24:06.211Z,9.80
2019-06-01T08:25:10.716Z,10.10
2019-06-01T08:26:14.798Z,9.37
2019-06-01T08:27:19.054Z,9.50
2019-06-01T08:28:22.670Z,9.67
2019-06-01T08:29:26.989Z,9.27
2019-06-01T08:30:30.773Z,9.73
2019-06-01T08:31:35.397Z,10.13
2019-06-01T08:32:39.017Z,9.70
2019-06-01T08:33:43.335Z,9.47
2019-06-01T08:34:46.899Z,9.17
2019-06-01T08:35:52.174Z,9.17
2019-06-01T08:36:55.823Z,9.13
2019-06-01T08:38:00.025Z,9.87
2019-06-01T08:39:05.434Z,10.17
2019-06-01T08:40:09.783Z,10.30
2019-06-01T08:41:13.448Z,9.70
2019-06-01T08:42:17.595Z,9.93
2019-06-01T08:43:21.255Z,8.28
2019-06-01T08:44:25.783Z,8.83
2019-06-01T08:45:29.723Z,9.05
2019-06-01T08:46:34.121Z,9.63
2019-06-01T08:47:38.111Z,9.40
2019-06-01T08:48:42.420Z,8.70
2019-06-01T08:49:46.002Z,7.28
2019-06-01T08:50:50.281Z,7.92
2019-06-01T08:51:53.831Z,7.45
2019-06-01T08:52:58.119Z,7.35
2019-06-01T08:54:01.817Z,7.10
2019-06-01T08:55:09.420Z,7.95
2019-06-01T08:56:15.370Z,7.58
2019-06-01T08:57:19.611Z,8.13
2019-06-01T08:58:24.161Z,8.33
2019-06-01T08:59:28.471Z,8.78
2019-06-01T09:00:32.642Z,7.58
2019-06-01T09:01:36.948Z,8.00
2019-06-01T09:02:40.592Z,7.83
2019-06-01T09:03:46.818Z,7.53
2019-06-01T09:04:50.137Z,7.40
2019-06-01T09:05:54.743Z,7.33
2019-06-01T09:06:58.428Z,8.00
2019-06-01T09:08:02.643Z,9.25
2019-06-01T09:09:11.556Z,8.80
2019-06-01T09:10:15.478Z,7.53
2019-06-01T09:11:19.067Z,8.10
2019-06-01T09:12:23.233Z,8.65
2019-06-01T09:13:27.190Z,8.18
2019-06-01T09:14:31.515Z,8.93
2019-06-01T09:15:35.549Z,8.80
2019-06-01T09:16:39.941Z,8.10
2019-06-01T09:17:43.597Z,8.13
2019-06-01T09:18:47.810Z,9.55
2019-06-01T09:19:51.448Z,8.63
2019-06-01T09:20:55.856Z,8.55
2019-06-01T09:21:59.514Z,8.95
2019-06-01T09:23:03.755Z,9.15
2019-06-01T09:24:07.930Z,9.15
2019-06-01T09:25:12.560Z,8.25
2019-06-01T09:26:16.272Z,8.78
2019-06-01T09:27:20.545Z,8.55
2019-06-01T09:28:25.672Z,8.73
2019-06-01T09:29:30.156Z,8.88
2019-06-01T09:30:34.089Z,9.10
2019-06-01T09:31:38.258Z,8.40
2019-06-01T09:32:42.012Z,9.40
2019-06-01T09:33:46.192Z,8.18
2019-06-01T09:34:49.845Z,7.58
2019-06-01T09:35:56.344Z,8.88
2019-06-01T09:36:59.414Z,8.83
2019-06-01T09:38:03.764Z,8.75
2019-06-01T09:39:08.538Z,9.15
2019-06-01T09:40:13.190Z,9.93
2019-06-01T09:41:16.860Z,8.88
2019-06-01T09:42:21.107Z,8.10
2019-06-01T09:43:24.705Z,8.23
2019-06-01T09:44:29.878Z,7.50
2019-06-01T09:45:36.339Z,8.15
2019-06-01T09:46:40.920Z,8.15
2019-06-01T09:47:44.660Z,8.28
2019-06-01T09:48:48.976Z,9.23
2019-06-01T09:49:52.568Z,27.20
2019-06-01T09:50:56.774Z,16.52
2019-06-01T09:52:00.433Z,9.33
2019-06-01T09:53:05.047Z,7.83
2019-06-01T09:54:08.729Z,7.40
2019-06-01T09:55:13.797Z,7.17
2019-06-01T09:56:17.416Z,6.87
2019-06-01T09:57:22.077Z,7.42
2019-06-01T09:58:25.696Z,7.83
2019-06-01T09:59:29.914Z,7.83
2019-06-01T10:00:34.855Z,9.05
2019-06-01T10:01:39.209Z,8.13
2019-06-01T10:02:43.271Z,7.25
2019-06-01T10:03:47.542Z,7.22
2019-06-01T10:04:51.180Z,8.18
2019-06-01T10:06:01.954Z,8.35
2019-06-01T10:07:00.880Z,7.85
2019-06-01T10:08:05.206Z,8.33
2019-06-01T10:09:12.173Z,8.55
2019-06-01T10:10:16.460Z,7.70
2019-06-01T10:11:20.146Z,7.12
2019-06-01T10:12:24.359Z,7.92
2019-06-01T10:13:27.995Z,8.23
2019-06-01T10:14:32.642Z,8.55
2019-06-01T10:15:36.537Z,7.75
2019-06-01T10:16:40.827Z,7.60
2019-06-01T10:17:44.681Z,7.70
2019-06-01T10:18:48.922Z,8.58
2019-06-01T10:19:52.554Z,7.35
2019-06-01T10:20:56.733Z,6.83
2019-06-01T10:22:00.459Z,6.72
2019-06-01T10:23:04.708Z,9.60
2019-06-01T10:24:08.364Z,8.10
2019-06-01T10:25:12.867Z,7.92
2019-06-01T10:26:16.512Z,16.57
2019-06-01T10:27:20.793Z,7.17
2019-06-01T10:28:24.890Z,5.83
2019-06-01T10:29:30.439Z,7.22
2019-06-01T10:30:34.126Z,7.10
2019-06-01T10:31:41.088Z,7.12
2019-06-01T10:32:43.700Z,7.20
2019-06-01T10:33:51.341Z,7.47
2019-06-01T10:34:53.323Z,7.10
2019-06-01T10:35:57.960Z,7.22
2019-06-01T10:37:01.584Z,8.08
2019-06-01T10:38:05.998Z,7.62
2019-06-01T10:39:09.644Z,8.25
2019-06-01T10:40:13.908Z,7.28
2019-06-01T10:41:17.531Z,7.30
2019-06-01T10:42:21.737Z,7.60
2019-06-01T10:43:25.297Z,8.08
2019-06-01T10:44:29.487Z,7.12
2019-06-01T10:45:33.577Z,7.25
2019-06-01T10:46:40.188Z,9.90
2019-06-01T10:47:44.270Z,7.97
2019-06-01T10:48:48.496Z,7.30
2019-06-01T10:49:52.396Z,6.90
2019-06-01T10:50:56.638Z,6.92
2019-06-01T10:52:00.214Z,6.75
2019-06-01T10:53:04.435Z,6.70
2019-06-01T10:54:08.062Z,6.70
2019-06-01T10:55:12.492Z,6.60
2019-06-01T10:56:16.159Z,7.00
2019-06-01T10:57:20.375Z,7.05
2019-06-01T10:58:24.018Z,6.17
2019-06-01T10:59:28.259Z,6.60
2019-06-01T11:00:39.807Z,7.05
2019-06-01T11:01:38.908Z,7.30
2019-06-01T11:02:43.305Z,6.90
2019-06-01T11:03:47.713Z,6.72
2019-06-01T11:04:51.361Z,6.72
2019-06-01T11:05:55.520Z,6.53
2019-06-01T11:06:59.094Z,7.12
2019-06-01T11:08:03.300Z,6.65
2019-06-01T11:09:09.563Z,7.15
2019-06-01T11:10:15.439Z,6.80
2019-06-01T11:11:19.093Z,7.03
2019-06-01T11:12:23.291Z,6.37
2019-06-01T11:13:26.851Z,6.87
2019-06-01T11:14:31.138Z,6.95
2019-06-01T11:15:35.108Z,7.35
2019-06-01T11:16:39.641Z,7.58
2019-06-01T11:17:43.345Z,7.17
2019-06-01T11:18:48.085Z,8.00
2019-06-01T11:19:51.854Z,6.55
2019-06-01T11:20:56.161Z,7.08
2019-06-01T11:21:59.796Z,6.95
2019-06-01T11:23:04.042Z,7.70
2019-06-01T11:24:07.962Z,7.67
2019-06-01T11:25:13.231Z,7.17
2019-06-01T11:26:16.860Z,6.65
2019-06-01T11:27:21.186Z,6.80
2019-06-01T11:28:24.865Z,6.78
2019-06-01T11:29:29.188Z,7.80
2019-06-01T11:30:33.514Z,7.65
2019-06-01T11:31:38.330Z,7.20
2019-06-01T11:32:43.622Z,7.58
2019-06-01T11:33:48.175Z,6.60
2019-06-01T11:34:51.827Z,7.78
2019-06-01T11:35:56.406Z,6.83
2019-06-01T11:37:05.362Z,6.97
2019-06-01T11:38:06.215Z,7.83
2019-06-01T11:39:10.149Z,8.10
2019-06-01T11:40:14.498Z,7.75
2019-06-01T11:41:18.775Z,8.53
2019-06-01T11:42:23.686Z,7.78
2019-06-01T11:43:27.248Z,7.80
2019-06-01T11:44:31.888Z,8.38
2019-06-01T11:45:36.617Z,7.75
2019-06-01T11:46:41.153Z,7.90
2019-06-01T11:47:45.239Z,7.45
2019-06-01T11:48:49.534Z,8.18
2019-06-01T11:49:53.280Z,6.95
2019-06-01T11:50:57.484Z,8.00
2019-06-01T11:52:01.106Z,7.60
2019-06-01T11:53:05.334Z,7.65
2019-06-01T11:54:08.973Z,7.37
2019-06-01T11:55:14.053Z,7.33
2019-06-01T11:56:18.071Z,7.85
2019-06-01T11:57:22.353Z,7.28
2019-06-01T11:58:25.987Z,7.35
2019-06-01T11:59:30.218Z,7.62
2019-06-01T12:00:35.297Z,7.15
2019-06-01T12:01:39.863Z,8.20
2019-06-01T12:02:43.916Z,7.30
2019-06-01T12:03:48.360Z,7.55
2019-06-01T12:04:51.987Z,7.60
2019-06-01T12:05:56.260Z,8.40
2019-06-01T12:07:16.172Z,7.80
2019-06-01T12:08:06.324Z,7.42
2019-06-01T12:09:09.986Z,6.45
2019-06-01T12:10:14.492Z,7.33
2019-06-01T12:11:20.427Z,7.50
2019-06-01T12:12:24.650Z,8.15
2019-06-01T12:13:28.320Z,6.58
2019-06-01T12:14:32.298Z,7.65
2019-06-01T12:15:36.267Z,8.15
2019-06-01T12:16:40.995Z,8.48
2019-06-01T12:17:44.928Z,9.33
2019-06-01T12:18:49.252Z,7.15
2019-06-01T12:19:52.907Z,7.20
2019-06-01T12:20:57.191Z,7.72
2019-06-01T12:22:01.156Z,8.40
2019-06-01T12:23:05.374Z,7.53
2019-06-01T12:24:09.083Z,7.83
2019-06-01T12:25:13.507Z,8.05
2019-06-01T12:26:17.507Z,8.00
2019-06-01T12:27:21.722Z,7.80
2019-06-01T12:28:25.451Z,7.78
2019-06-01T12:29:29.678Z,8.40
2019-06-01T12:30:33.315Z,8.48
2019-06-01T12:31:37.724Z,7.45
2019-06-01T12:32:41.937Z,7.58
2019-06-01T12:33:46.501Z,8.08
2019-06-01T12:34:50.206Z,7.87
2019-06-01T12:35:54.408Z,8.10
2019-06-01T12:36:58.295Z,9.08
2019-06-01T12:38:06.430Z,8.90
2019-06-01T12:39:09.040Z,8.20
2019-06-01T12:40:13.675Z,8.85
2019-06-01T12:41:17.235Z,9.53
2019-06-01T12:42:21.582Z,9.20
2019-06-01T12:43:25.198Z,8.45
2019-06-01T12:44:29.583Z,8.25
2019-06-01T12:45:33.213Z,9.00
2019-06-01T12:46:39.779Z,9.10
2019-06-01T12:47:43.917Z,8.75
2019-06-01T12:48:48.470Z,8.20
2019-06-01T12:49:52.662Z,7.25
2019-06-01T12:50:56.964Z,7.62
2019-06-01T12:52:00.596Z,7.97
2019-06-01T12:53:04.882Z,8.40
2019-06-01T12:54:08.633Z,7.85
2019-06-01T12:55:12.849Z,7.85
2019-06-01T12:56:16.436Z,7.83
2019-06-01T12:57:20.646Z,6.53
2019-06-01T12:58:24.215Z,7.92
2019-06-01T12:59:28.481Z,7.17
2019-06-01T13:00:32.212Z,7.80
2019-06-01T13:01:36.493Z,7.33
2019-06-01T13:02:40.212Z,7.20
2019-06-01T13:03:45.244Z,7.30
2019-06-01T13:04:49.200Z,8.03
2019-06-01T13:05:53.497Z,7.72
2019-06-01T13:06:57.159Z,7.60
2019-06-01T13:08:02.958Z,6.95
2019-06-01T13:09:08.392Z,6.83
2019-06-01T13:10:12.773Z,6.72
2019-06-01T13:11:16.395Z,7.40
2019-06-01T13:12:20.704Z,7.42
2019-06-01T13:13:24.286Z,6.97
2019-06-01T13:14:28.562Z,6.30
2019-06-01T13:15:32.224Z,7.00
2019-06-01T13:16:36.561Z,6.65
2019-06-01T13:17:41.024Z,6.95
2019-06-01T13:18:45.408Z,7.62
2019-06-01T13:19:49.586Z,7.72
2019-06-01T13:20:53.930Z,7.25
2019-06-01T13:21:57.806Z,7.40
2019-06-01T13:23:02.857Z,6.75
2019-06-01T13:24:06.590Z,7.30
2019-06-01T13:25:11.000Z,7.30
2019-06-01T13:26:14.588Z,7.50
2019-06-01T13:27:18.918Z,6.35
2019-06-01T13:28:37.287Z,7.53
2019-06-01T13:29:28.338Z,7.28
2019-06-01T13:30:31.986Z,7.25
2019-06-01T13:31:36.234Z,7.35
2019-06-01T13:32:39.975Z,8.18
2019-06-01T13:33:44.514Z,7.20
2019-06-01T13:34:49.196Z,7.35
2019-06-01T13:35:53.666Z,6.78
2019-06-01T13:36:57.362Z,6.47
2019-06-01T13:38:11.881Z,6.92
2019-06-01T13:39:08.327Z,6.50
2019-06-01T13:40:15.421Z,6.92
2019-06-01T13:41:20.435Z,6.40
2019-06-01T13:42:24.617Z,6.58
2019-06-01T13:43:28.171Z,5.50
2019-06-01T13:44:32.436Z,5.92
2019-06-01T13:45:36.139Z,6.00
2019-06-01T13:46:40.347Z,5.72
2019-06-01T13:47:45.303Z,5.70
2019-06-01T13:48:50.005Z,6.47
2019-06-01T13:49:54.165Z,6.28
2019-06-01T13:50:58.446Z,6.05
2019-06-01T13:52:02.072Z,6.15
2019-06-01T13:53:06.346Z,6.15
2019-06-01T13:54:09.983Z,6.10
2019-06-01T13:55:14.297Z,5.60
2019-06-01T13:56:17.955Z,6.50
2019-06-01T13:57:22.162Z,6.42
2019-06-01T13:58:25.826Z,6.47
2019-06-01T13:59:30.059Z,6.28
2019-06-01T14:00:33.785Z,6.87
2019-06-01T14:01:38.452Z,7.00
2019-06-01T14:02:42.211Z,6.80
2019-06-01T14:03:47.219Z,6.95
2019-06-01T14:04:52.048Z,6.75
2019-06-01T14:06:00.985Z,7.42